Time,TemperatureF,DewpointF,PressureIn,WindDirection,WindDirectionDegrees,WindSpeedMPH,WindSpeedGustMPH,Humidity,HourlyPrecipIn,Conditions,Clouds,dailyrainin,SolarRadiationWatts/m^2,SoftwareType,DateUTC
2015-03-01 00:03:00,77.3,74.1,30.07,ENE,68,1.0,6.0,90,0.00,,FEW018,0.00,0.00,VWS V14.00,2015-03-01 05:03:00,
2015-03-01 00:08:00,77.1,74.3,30.07,East,82,4.0,5.0,91,0.00,,FEW018,0.00,0.00,VWS V14.00,2015-03-01 05:08:00,
2015-03-01 00:13:00,77.0,74.2,30.07,ESE,113,2.0,5.0,91,0.00,,FEW018,0.00,0.00,VWS V14.00,2015-03-01 05:13:00,
2015-03-01 00:18:00,76.8,74.0,30.07,ENE,76,2.0,5.0,91,0.00,,FEW018,0.00,0.00,VWS V14.00,2015-03-01 05:18:00,
2015-03-01 00:23:00,76.5,73.7,30.06,East,97,2.0,5.0,91,0.00,,FEW018,0.00,0.00,VWS V14.00,2015-03-01 05:23:00,
2015-03-01 00:28:00,76.3,73.8,30.06,East,97,0.0,5.0,92,0.00,,FEW018,0.00,0.00,VWS V14.00,2015-03-01 05:28:00,
2015-03-01 00:33:00,76.2,73.7,30.06,ENE,78,3.0,5.0,92,0.00,,FEW018,0.00,0.00,VWS V14.00,2015-03-01 05:33:00,
2015-03-01 00:38:00,76.1,73.6,30.06,ENE,78,1.0,5.0,92,0.00,,FEW018,0.00,0.00,VWS V14.00,2015-03-01 05:38:00,
2015-03-01 00:43:00,76.1,73.6,30.06,ENE,78,2.0,5.0,92,0.00,,FEW018,0.00,0.00,VWS V14.00,2015-03-01 05:43:00,
2015-03-01 00:48:00,76.1,73.6,30.06,NE,42,3.0,5.0,92,0.00,,FEW018,0.00,0.00,VWS V14.00,2015-03-01 05:48:00,
2015-03-01 00:53:00,76.1,73.6,30.06,NE,43,3.0,5.0,92,0.00,,FEW018,0.00,0.00,VWS V14.00,2015-03-01 05:53:00,
2015-03-01 00:58:00,76.2,73.7,30.06,NE,45,2.0,5.0,92,0.00,,FEW018,0.00,0.00,VWS V14.00,2015-03-01 05:58:00,
2015-03-01 01:03:00,76.3,73.8,30.06,ENE,62,4.0,5.0,92,0.00,,FEW018,0.00,0.00,VWS V14.00,2015-03-01 06:03:00,
2015-03-01 01:08:00,76.6,74.1,30.05,ENE,71,4.0,9.0,92,0.00,,FEW018,0.00,0.00,VWS V14.00,2015-03-01 06:08:00,
2015-03-01 01:13:00,76.9,74.4,30.05,ENE,74,3.0,9.0,92,0.00,,FEW018,0.00,0.00,VWS V14.00,2015-03-01 06:13:00,
2015-03-01 01:18:00,77.1,74.3,30.05,East,92,2.0,9.0,91,0.00,,FEW018,0.00,0.00,VWS V14.00,2015-03-01 06:18:00,
2015-03-01 01:22:00,77.2,74.4,30.05,ENE,70,9.0,11.0,91,0.00,,FEW018,0.00,0.00,VWS V14.00,2015-03-01 06:22:00,
2015-03-01 01:27:00,77.3,74.5,30.05,ENE,69,7.0,11.0,91,0.00,,FEW018,0.00,0.00,VWS V14.00,2015-03-01 06:27:00,
2015-03-01 01:32:00,77.5,74.7,30.05,ENE,60,4.0,12.0,91,0.00,,FEW018,0.00,0.00,VWS V14.00,2015-03-01 06:32:00,
2015-03-01 01:37:00,77.4,74.2,30.04,NE,50,5.0,12.0,90,0.00,,FEW018,0.00,0.00,VWS V14.00,2015-03-01 06:37:00,
2015-03-01 01:42:00,77.2,73.7,30.04,NE,51,4.0,12.0,89,0.00,,FEW018,0.00,0.00,VWS V14.00,2015-03-01 06:42:00,
2015-03-01 01:47:00,77.3,73.8,30.04,NE,53,5.0,12.0,89,0.00,,FEW018,0.00,0.00,VWS V14.00,2015-03-01 06:47:00,
2015-03-01 01:52:00,77.5,74.0,30.04,NE,49,2.0,12.0,89,0.00,,FEW018,0.00,0.00,VWS V14.00,2015-03-01 06:52:00,
2015-03-01 01:57:00,77.5,74.0,30.04,ENE,59,3.0,12.0,89,0.00,,FEW018,0.00,0.00,VWS V14.00,2015-03-01 06:57:00,
2015-03-01 02:02:00,77.4,73.6,30.04,ENE,59,9.0,12.0,88,0.00,,FEW018,0.00,0.00,VWS V14.00,2015-03-01 07:02:00,
2015-03-01 02:07:00,77.6,73.8,30.04,NE,44,4.0,10.0,88,0.00,,FEW018,0.00,0.00,VWS V14.00,2015-03-01 07:07:00,
2015-03-01 02:12:00,77.8,74.0,30.04,NE,49,9.0,11.0,88,0.00,,FEW018,0.00,0.00,VWS V14.00,2015-03-01 07:12:00,
2015-03-01 02:17:00,77.9,74.1,30.04,NE,46,2.0,11.0,88,0.00,,FEW018,0.00,0.00,VWS V14.00,2015-03-01 07:17:00,
2015-03-01 02:22:00,77.8,74.0,30.03,NE,55,4.0,11.0,88,0.00,,FEW018,0.00,0.00,VWS V14.00,2015-03-01 07:22:00,
2015-03-01 02:27:00,77.9,74.1,30.03,ENE,71,3.0,11.0,88,0.00,,FEW018,0.00,0.00,VWS V14.00,2015-03-01 07:27:00,
2015-03-01 02:32:00,77.8,74.0,30.03,ENE,69,5.0,11.0,88,0.00,,FEW018,0.00,0.00,VWS V14.00,2015-03-01 07:32:00,
2015-03-01 02:37:00,77.8,74.0,30.03,NE,41,2.0,11.0,88,0.00,,FEW018,0.00,0.00,VWS V14.00,2015-03-01 07:37:00,
2015-03-01 02:42:00,77.8,74.0,30.03,East,86,9.0,11.0,88,0.00,,FEW018,0.00,0.00,VWS V14.00,2015-03-01 07:42:00,
2015-03-01 02:47:00,77.7,73.9,30.03,East,82,5.0,11.0,88,0.00,,FEW018,0.00,0.00,VWS V14.00,2015-03-01 07:47:00,
2015-03-01 02:52:00,77.7,73.9,30.03,NNE,24,4.0,11.0,88,0.00,,FEW018,0.00,0.00,VWS V14.00,2015-03-01 07:52:00,
2015-03-01 02:57:00,77.8,74.0,30.03,NE,51,3.0,11.0,88,0.00,,FEW018,0.00,0.00,VWS V14.00,2015-03-01 07:57:00,
2015-03-01 03:02:00,77.7,73.9,30.03,ENE,63,1.0,11.0,88,0.00,,FEW018,0.00,0.00,VWS V14.00,2015-03-01 08:02:00,
2015-03-01 03:07:00,77.5,73.7,30.02,ENE,63,3.0,7.0,88,0.00,,FEW018,0.00,0.00,VWS V14.00,2015-03-01 08:07:00,
2015-03-01 03:12:00,77.4,73.9,30.02,East,95,4.0,7.0,89,0.00,,FEW018,0.00,0.00,VWS V14.00,2015-03-01 08:12:00,
2015-03-01 03:17:00,77.3,73.8,30.02,East,96,4.0,7.0,89,0.00,,FEW018,0.00,0.00,VWS V14.00,2015-03-01 08:17:00,
2015-03-01 03:22:00,77.1,73.6,30.02,ENE,69,2.0,7.0,89,0.00,,FEW018,0.00,0.00,VWS V14.00,2015-03-01 08:22:00,
2015-03-01 03:27:00,77.0,73.5,30.02,East,101,5.0,9.0,89,0.00,,FEW018,0.00,0.00,VWS V14.00,2015-03-01 08:27:00,
2015-03-01 03:32:00,77.0,73.5,30.02,ENE,74,4.0,9.0,89,0.00,,FEW018,0.00,0.00,VWS V14.00,2015-03-01 08:32:00,
2015-03-01 03:37:00,76.9,73.4,30.02,ENE,78,3.0,9.0,89,0.00,,FEW018,0.00,0.00,VWS V14.00,2015-03-01 08:37:00,
2015-03-01 03:42:00,76.9,73.4,30.02,ESE,117,3.0,9.0,89,0.00,,FEW018,0.00,0.00,VWS V14.00,2015-03-01 08:42:00,
2015-03-01 03:47:00,76.8,73.3,30.02,East,80,4.0,9.0,89,0.00,,FEW018,0.00,0.00,VWS V14.00,2015-03-01 08:47:00,
2015-03-01 03:52:00,76.7,73.6,30.03,East,90,2.0,9.0,90,0.00,,FEW018,0.00,0.00,VWS V14.00,2015-03-01 08:52:00,
2015-03-01 03:57:00,76.6,73.4,30.03,ENE,64,3.0,9.0,90,0.00,,FEW018,0.00,0.00,VWS V14.00,2015-03-01 08:57:00,
2015-03-01 04:02:00,76.5,73.3,30.03,ENE,69,3.0,9.0,90,0.00,,FEW018,0.00,0.00,VWS V14.00,2015-03-01 09:02:00,
2015-03-01 04:07:00,76.5,73.3,30.03,ENE,71,3.0,7.0,90,0.00,,FEW018,0.00,0.00,VWS V14.00,2015-03-01 09:07:00,
2015-03-01 04:12:00,76.4,73.2,30.03,East,95,2.0,7.0,90,0.00,,FEW018,0.00,0.00,VWS V14.00,2015-03-01 09:12:00,
2015-03-01 04:17:00,76.4,73.2,30.03,ENE,69,1.0,7.0,90,0.00,,FEW018,0.00,0.00,VWS V14.00,2015-03-01 09:17:00,
2015-03-01 04:22:00,76.4,73.2,30.03,ENE,72,4.0,7.0,90,0.00,,FEW018,0.00,0.00,VWS V14.00,2015-03-01 09:22:00,
2015-03-01 04:27:00,76.2,73.1,30.03,East,96,1.0,7.0,90,0.00,,FEW018,0.00,0.00,VWS V14.00,2015-03-01 09:27:00,
2015-03-01 04:32:00,76.1,73.0,30.03,ENE,77,2.0,7.0,90,0.00,,FEW018,0.00,0.00,VWS V14.00,2015-03-01 09:32:00,
2015-03-01 04:37:00,76.0,72.9,30.03,ENE,65,1.0,7.0,90,0.00,,FEW018,0.00,0.00,VWS V14.00,2015-03-01 09:37:00,
2015-03-01 04:42:00,76.0,72.9,30.03,ENE,67,2.0,7.0,90,0.00,,FEW018,0.00,0.00,VWS V14.00,2015-03-01 09:42:00,
2015-03-01 04:47:00,76.1,73.0,30.03,ENE,67,3.0,7.0,90,0.00,,FEW018,0.00,0.00,VWS V14.00,2015-03-01 09:47:00,
2015-03-01 04:52:00,76.2,73.1,30.03,ENE,69,2.0,7.0,90,0.00,,FEW018,0.00,0.00,VWS V14.00,2015-03-01 09:52:00,
2015-03-01 04:57:00,76.2,73.1,30.03,ENE,69,2.0,7.0,90,0.00,,FEW018,0.00,0.00,VWS V14.00,2015-03-01 09:57:00,
2015-03-01 05:02:00,76.2,72.7,30.03,ESE,105,3.0,7.0,89,0.00,,FEW018,0.00,0.00,VWS V14.00,2015-03-01 10:02:00,
2015-03-01 05:07:00,76.3,73.2,30.03,ENE,75,2.0,4.0,90,0.00,,FEW018,0.00,0.00,VWS V14.00,2015-03-01 10:07:00,
2015-03-01 05:12:00,76.4,73.2,30.03,ENE,64,4.0,6.0,90,0.00,,FEW018,0.00,0.00,VWS V14.00,2015-03-01 10:12:00,
2015-03-01 05:17:00,76.4,73.2,30.03,ENE,73,4.0,6.0,90,0.00,,FEW018,0.00,0.00,VWS V14.00,2015-03-01 10:17:00,
2015-03-01 05:22:00,76.4,73.2,30.04,ENE,70,5.0,6.0,90,0.00,,FEW018,0.00,0.00,VWS V14.00,2015-03-01 10:22:00,
2015-03-01 05:27:00,76.6,73.4,30.04,East,81,3.0,6.0,90,0.00,,FEW018,0.00,0.00,VWS V14.00,2015-03-01 10:27:00,
2015-03-01 05:32:00,76.6,73.4,30.04,ENE,61,2.0,7.0,90,0.00,,FEW018,0.00,0.00,VWS V14.00,2015-03-01 10:32:00,
2015-03-01 05:37:00,76.8,73.7,30.04,ENE,67,2.0,9.0,90,0.00,,FEW018,0.00,0.00,VWS V14.00,2015-03-01 10:37:00,
2015-03-01 05:42:00,76.9,73.8,30.04,ENE,69,5.0,9.0,90,0.00,,FEW018,0.00,0.00,VWS V14.00,2015-03-01 10:42:00,
2015-03-01 05:47:00,76.9,73.8,30.04,East,87,2.0,9.0,90,0.00,,FEW018,0.00,0.00,VWS V14.00,2015-03-01 10:47:00,
2015-03-01 05:52:00,76.9,73.8,30.05,ENE,62,3.0,9.0,90,0.00,,FEW018,0.00,0.00,VWS V14.00,2015-03-01 10:52:00,
2015-03-01 05:57:00,76.9,73.8,30.05,East,85,2.0,9.0,90,0.00,,FEW018,0.00,0.00,VWS V14.00,2015-03-01 10:57:00,
2015-03-01 06:02:00,76.8,73.7,30.05,ESE,102,4.0,9.0,90,0.00,,FEW018,0.00,0.00,VWS V14.00,2015-03-01 11:02:00,
2015-03-01 06:07:00,76.8,73.7,30.06,East,93,5.0,5.0,90,0.00,,FEW018,0.00,0.00,VWS V14.00,2015-03-01 11:07:00,
2015-03-01 06:12:00,76.8,73.7,30.06,SE,140,5.0,6.0,90,0.00,,FEW018,0.00,0.00,VWS V14.00,2015-03-01 11:12:00,
2015-03-01 06:17:00,76.7,73.6,30.06,SE,126,2.0,7.0,90,0.00,,FEW018,0.00,0.00,VWS V14.00,2015-03-01 11:17:00,
2015-03-01 06:22:00,76.7,73.6,30.06,East,83,2.0,7.0,90,0.00,,FEW018,0.00,0.00,VWS V14.00,2015-03-01 11:22:00,
2015-03-01 06:27:00,76.7,73.6,30.06,ENE,64,2.0,7.0,90,0.00,,FEW018,0.00,0.00,VWS V14.00,2015-03-01 11:27:00,
2015-03-01 06:32:00,76.7,73.6,30.06,ENE,71,2.0,7.0,90,0.00,,FEW018,0.00,0.00,VWS V14.00,2015-03-01 11:32:00,
2015-03-01 06:37:00,76.8,73.7,30.07,East,84,6.0,7.0,90,0.00,,FEW018,0.00,0.00,VWS V14.00,2015-03-01 11:37:00,
2015-03-01 06:41:00,76.8,73.7,30.07,East,81,2.0,7.0,90,0.00,,FEW018,0.00,0.00,VWS V14.00,2015-03-01 11:41:00,
2015-03-01 06:46:00,76.8,73.7,30.07,NE,44,5.0,7.0,90,0.00,,FEW018,0.00,5.00,VWS V14.00,2015-03-01 11:46:00,
2015-03-01 06:51:00,76.9,73.8,30.08,ENE,77,2.0,7.0,90,0.00,,FEW018,0.00,9.00,VWS V14.00,2015-03-01 11:51:00,
2015-03-01 06:56:00,76.9,73.8,30.08,ENE,73,2.0,7.0,90,0.00,,FEW018,0.00,12.00,VWS V14.00,2015-03-01 11:56:00,
2015-03-01 07:01:00,76.9,73.8,30.08,ENE,65,5.0,7.0,90,0.00,,FEW018,0.00,16.00,VWS V14.00,2015-03-01 12:01:00,
2015-03-01 07:06:00,77.0,73.8,30.08,ESE,113,1.0,4.0,90,0.00,,FEW018,0.00,21.00,VWS V14.00,2015-03-01 12:06:00,
2015-03-01 07:11:00,77.1,73.9,30.08,ENE,69,4.0,6.0,90,0.00,,FEW018,0.00,25.00,VWS V14.00,2015-03-01 12:11:00,
2015-03-01 07:16:00,77.2,73.7,30.08,East,85,1.0,7.0,89,0.00,,FEW018,0.00,28.00,VWS V14.00,2015-03-01 12:16:00,
2015-03-01 07:21:00,77.3,73.8,30.08,ENE,62,2.0,7.0,89,0.00,,FEW018,0.00,56.00,VWS V14.00,2015-03-01 12:21:00,
2015-03-01 07:26:00,77.5,74.0,30.08,ENE,60,4.0,7.0,89,0.00,,FEW018,0.00,60.00,VWS V14.00,2015-03-01 12:26:00,
2015-03-01 07:31:00,77.9,74.1,30.08,ENE,70,5.0,7.0,88,0.00,,FEW018,0.00,62.00,VWS V14.00,2015-03-01 12:31:00,
2015-03-01 07:36:00,78.1,73.9,30.09,ESE,110,3.0,7.0,87,0.00,,FEW018,0.00,105.00,VWS V14.00,2015-03-01 12:36:00,
2015-03-01 07:41:00,78.4,74.2,30.09,NE,46,3.0,7.0,87,0.00,,FEW018,0.00,137.00,VWS V14.00,2015-03-01 12:41:00,
2015-03-01 07:46:00,78.6,74.1,30.09,ENE,57,7.0,7.0,86,0.00,,FEW018,0.00,83.00,VWS V14.00,2015-03-01 12:46:00,
2015-03-01 07:51:00,78.6,74.1,30.09,ENE,76,4.0,7.0,86,0.00,,FEW018,0.00,81.00,VWS V14.00,2015-03-01 12:51:00,
2015-03-01 07:56:00,78.6,74.1,30.09,East,98,4.0,9.0,86,0.00,,FEW018,0.00,128.00,VWS V14.00,2015-03-01 12:56:00,
2015-03-01 08:01:00,79.0,74.1,30.09,East,84,3.0,9.0,85,0.00,,FEW018,0.00,137.00,VWS V14.00,2015-03-01 13:01:00,
2015-03-01 08:06:00,79.3,74.1,30.09,ENE,78,4.0,6.0,84,0.00,,FEW018,0.00,118.00,VWS V14.00,2015-03-01 13:06:00,
2015-03-01 08:11:00,79.5,74.2,30.09,ENE,74,3.0,9.0,84,0.00,,FEW018,0.00,113.00,VWS V14.00,2015-03-01 13:11:00,
2015-03-01 08:16:00,79.5,73.9,30.09,ESE,103,5.0,10.0,83,0.00,,FEW018,0.00,120.00,VWS V14.00,2015-03-01 13:16:00,